sensor_id;sensor_type;location;lat;lon;timestamp;temperature;humidity
14008;DHT22;61651;45.508;12.232;2024-02-04T00:01:13;7.70;99.90
14008;DHT22;61651;45.508;12.232;2024-02-04T00:04:15;7.40;99.90
14008;DHT22;61651;45.508;12.232;2024-02-04T00:07:18;7.40;99.90
14008;DHT22;61651;45.508;12.232;2024-02-04T00:10:20;7.80;99.90
14008;DHT22;61651;45.508;12.232;2024-02-04T00:13:22;8.10;99.90
14008;DHT22;61651;45.508;12.232;2024-02-04T00:16:24;8.30;99.90
14008;DHT22;61651;45.508;12.232;2024-02-04T00:19:26;8.40;99.90
14008;DHT22;61651;45.508;12.232;2024-02-04T00:22:30;8.50;99.90
14008;DHT22;61651;45.508;12.232;2024-02-04T00:25:32;8.60;99.90
14008;DHT22;61651;45.508;12.232;2024-02-04T00:28:34;8.50;99.90
14008;DHT22;61651;45.508;12.232;2024-02-04T00:31:36;8.60;99.90
14008;DHT22;61651;45.508;12.232;2024-02-04T00:34:39;8.60;99.90
14008;DHT22;61651;45.508;12.232;2024-02-04T00:37:43;8.60;99.90
14008;DHT22;61651;45.508;12.232;2024-02-04T00:40:45;8.60;99.90
14008;DHT22;61651;45.508;12.232;2024-02-04T00:43:47;8.70;99.90
14008;DHT22;61651;45.508;12.232;2024-02-04T00:46:49;8.60;99.90
14008;DHT22;61651;45.508;12.232;2024-02-04T00:49:51;8.50;99.90
14008;DHT22;61651;45.508;12.232;2024-02-04T00:52:54;8.60;99.90
14008;DHT22;61651;45.508;12.232;2024-02-04T00:55:56;8.60;99.90
14008;DHT22;61651;45.508;12.232;2024-02-04T00:58:58;8.60;99.90
14008;DHT22;61651;45.508;12.232;2024-02-04T01:02:00;8.60;99.90
14008;DHT22;61651;45.508;12.232;2024-02-04T01:05:02;8.50;99.90
14008;DHT22;61651;45.508;12.232;2024-02-04T01:08:06;8.20;99.90
14008;DHT22;61651;45.508;12.232;2024-02-04T01:11:08;7.90;99.90
14008;DHT22;61651;45.508;12.232;2024-02-04T01:14:10;8.10;99.90
14008;DHT22;61651;45.508;12.232;2024-02-04T01:17:12;8.10;99.90
14008;DHT22;61651;45.508;12.232;2024-02-04T01:20:14;7.90;99.90
14008;DHT22;61651;45.508;12.232;2024-02-04T01:23:17;7.60;99.90
14008;DHT22;61651;45.508;12.232;2024-02-04T01:26:20;7.70;99.90
14008;DHT22;61651;45.508;12.232;2024-02-04T01:29:24;8.00;99.90
14008;DHT22;61651;45.508;12.232;2024-02-04T01:32:26;8.30;99.90
14008;DHT22;61651;45.508;12.232;2024-02-04T01:35:28;8.30;99.90
14008;DHT22;61651;45.508;12.232;2024-02-04T01:38:31;8.00;99.90
14008;DHT22;61651;45.508;12.232;2024-02-04T01:41:33;8.00;99.90
14008;DHT22;61651;45.508;12.232;2024-02-04T01:44:35;7.60;99.90
14008;DHT22;61651;45.508;12.232;2024-02-04T01:47:37;7.60;99.90
14008;DHT22;61651;45.508;12.232;2024-02-04T01:50:39;7.90;99.90
14008;DHT22;61651;45.508;12.232;2024-02-04T01:53:44;8.10;99.90
14008;DHT22;61651;45.508;12.232;2024-02-04T01:56:49;8.30;99.90
14008;DHT22;61651;45.508;12.232;2024-02-04T01:59:52;8.40;99.90
14008;DHT22;61651;45.508;12.232;2024-02-04T02:02:56;8.50;99.90
14008;DHT22;61651;45.508;12.232;2024-02-04T02:06:01;8.50;99.90
14008;DHT22;61651;45.508;12.232;2024-02-04T02:09:04;8.40;99.90
14008;DHT22;61651;45.508;12.232;2024-02-04T02:12:09;8.40;99.90
14008;DHT22;61651;45.508;12.232;2024-02-04T02:15:15;8.40;99.90
14008;DHT22;61651;45.508;12.232;2024-02-04T02:18:23;8.50;99.90
14008;DHT22;61651;45.508;12.232;2024-02-04T02:21:38;8.50;99.90
14008;DHT22;61651;45.508;12.232;2024-02-04T02:24:47;8.50;99.90
14008;DHT22;61651;45.508;12.232;2024-02-04T02:27:50;8.50;99.90
14008;DHT22;61651;45.508;12.232;2024-02-04T02:30:52;8.50;99.90
14008;DHT22;61651;45.508;12.232;2024-02-04T02:33:54;8.50;99.90
14008;DHT22;61651;45.508;12.232;2024-02-04T02:37:11;8.50;99.90
14008;DHT22;61651;45.508;12.232;2024-02-04T02:40:22;8.50;99.90
14008;DHT22;61651;45.508;12.232;2024-02-04T02:43:25;8.50;99.90
14008;DHT22;61651;45.508;12.232;2024-02-04T02:46:28;8.50;99.90
14008;DHT22;61651;45.508;12.232;2024-02-04T02:49:30;8.50;99.90
14008;DHT22;61651;45.508;12.232;2024-02-04T02:52:32;8.40;99.90
14008;DHT22;61651;45.508;12.232;2024-02-04T02:55:36;8.40;99.90
14008;DHT22;61651;45.508;12.232;2024-02-04T02:58:38;8.40;99.90
14008;DHT22;61651;45.508;12.232;2024-02-04T03:01:40;8.20;99.90
14008;DHT22;61651;45.508;12.232;2024-02-04T03:04:42;7.70;99.90
14008;DHT22;61651;45.508;12.232;2024-02-04T03:07:44;7.60;99.90
14008;DHT22;61651;45.508;12.232;2024-02-04T03:10:47;7.80;99.90
14008;DHT22;61651;45.508;12.232;2024-02-04T03:13:49;8.00;99.90
14008;DHT22;61651;45.508;12.232;2024-02-04T03:16:51;8.10;99.90
14008;DHT22;61651;45.508;12.232;2024-02-04T03:19:53;8.10;99.90
14008;DHT22;61651;45.508;12.232;2024-02-04T03:22:56;8.10;99.90
14008;DHT22;61651;45.508;12.232;2024-02-04T03:26:00;8.00;99.90
14008;DHT22;61651;45.508;12.232;2024-02-04T03:29:02;8.10;99.90
14008;DHT22;61651;45.508;12.232;2024-02-04T03:32:05;8.00;99.90
14008;DHT22;61651;45.508;12.232;2024-02-04T03:35:08;8.00;99.90
14008;DHT22;61651;45.508;12.232;2024-02-04T03:38:10;8.00;99.90
14008;DHT22;61651;45.508;12.232;2024-02-04T03:41:13;8.00;99.90
14008;DHT22;61651;45.508;12.232;2024-02-04T03:44:15;8.00;99.90
14008;DHT22;61651;45.508;12.232;2024-02-04T03:47:17;7.90;99.90
14008;DHT22;61651;45.508;12.232;2024-02-04T03:50:19;7.90;99.90
14008;DHT22;61651;45.508;12.232;2024-02-04T03:53:21;7.70;99.90
14008;DHT22;61651;45.508;12.232;2024-02-04T03:56:25;7.60;99.90
14008;DHT22;61651;45.508;12.232;2024-02-04T03:59:27;7.60;99.90
14008;DHT22;61651;45.508;12.232;2024-02-04T04:02:29;7.60;99.90
14008;DHT22;61651;45.508;12.232;2024-02-04T04:05:31;7.60;99.90
14008;DHT22;61651;45.508;12.232;2024-02-04T04:08:33;7.60;99.90
14008;DHT22;61651;45.508;12.232;2024-02-04T04:11:36;7.70;99.90
14008;DHT22;61651;45.508;12.232;2024-02-04T04:14:38;7.60;99.90
14008;DHT22;61651;45.508;12.232;2024-02-04T04:17:40;7.60;99.90
14008;DHT22;61651;45.508;12.232;2024-02-04T04:20:42;7.60;99.90
14008;DHT22;61651;45.508;12.232;2024-02-04T04:23:44;7.60;99.90
14008;DHT22;61651;45.508;12.232;2024-02-04T04:26:47;7.60;99.90
14008;DHT22;61651;45.508;12.232;2024-02-04T04:29:49;7.50;99.90
14008;DHT22;61651;45.508;12.232;2024-02-04T04:32:51;7.50;99.90
14008;DHT22;61651;45.508;12.232;2024-02-04T04:35:53;7.50;99.90
14008;DHT22;61651;45.508;12.232;2024-02-04T04:38:55;7.50;99.90
14008;DHT22;61651;45.508;12.232;2024-02-04T04:41:59;7.40;99.90
14008;DHT22;61651;45.508;12.232;2024-02-04T04:45:01;7.40;99.90
14008;DHT22;61651;45.508;12.232;2024-02-04T04:48:04;7.40;99.90
14008;DHT22;61651;45.508;12.232;2024-02-04T04:51:08;7.30;99.90
14008;DHT22;61651;45.508;12.232;2024-02-04T04:54:10;6.90;99.90
14008;DHT22;61651;45.508;12.232;2024-02-04T04:57:14;7.00;99.90
14008;DHT22;61651;45.508;12.232;2024-02-04T05:00:17;7.10;99.90
14008;DHT22;61651;45.508;12.232;2024-02-04T05:03:19;7.20;99.90
14008;DHT22;61651;45.508;12.232;2024-02-04T05:06:21;7.10;99.90
14008;DHT22;61651;45.508;12.232;2024-02-04T05:09:23;7.10;99.90
14008;DHT22;61651;45.508;12.232;2024-02-04T05:12:26;7.10;99.90
14008;DHT22;61651;45.508;12.232;2024-02-04T05:15:28;7.10;99.90
14008;DHT22;61651;45.508;12.232;2024-02-04T05:18:30;7.10;99.90
14008;DHT22;61651;45.508;12.232;2024-02-04T05:21:32;7.10;99.90
14008;DHT22;61651;45.508;12.232;2024-02-04T05:24:34;7.10;99.90
14008;DHT22;61651;45.508;12.232;2024-02-04T05:27:37;7.20;99.90
14008;DHT22;61651;45.508;12.232;2024-02-04T05:30:40;7.20;99.90
14008;DHT22;61651;45.508;12.232;2024-02-04T05:33:41;7.20;99.90
14008;DHT22;61651;45.508;12.232;2024-02-04T05:36:43;7.20;99.90
14008;DHT22;61651;45.508;12.232;2024-02-04T05:39:45;7.10;99.90
14008;DHT22;61651;45.508;12.232;2024-02-04T05:42:49;7.20;99.90
14008;DHT22;61651;45.508;12.232;2024-02-04T05:45:51;7.10;99.90
14008;DHT22;61651;45.508;12.232;2024-02-04T05:48:53;7.10;99.90
14008;DHT22;61651;45.508;12.232;2024-02-04T05:51:55;7.10;99.90
14008;DHT22;61651;45.508;12.232;2024-02-04T05:54:57;7.10;99.90
14008;DHT22;61651;45.508;12.232;2024-02-04T05:58:00;7.10;99.90
14008;DHT22;61651;45.508;12.232;2024-02-04T06:01:02;7.00;99.90
14008;DHT22;61651;45.508;12.232;2024-02-04T06:04:04;7.10;99.90
14008;DHT22;61651;45.508;12.232;2024-02-04T06:07:06;7.10;99.90
14008;DHT22;61651;45.508;12.232;2024-02-04T06:10:09;7.10;99.90
14008;DHT22;61651;45.508;12.232;2024-02-04T06:13:12;7.00;99.90
14008;DHT22;61651;45.508;12.232;2024-02-04T06:16:14;7.00;99.90
14008;DHT22;61651;45.508;12.232;2024-02-04T06:19:17;6.90;99.90
14008;DHT22;61651;45.508;12.232;2024-02-04T06:22:19;6.90;99.90
14008;DHT22;61651;45.508;12.232;2024-02-04T06:25:23;6.90;99.90
14008;DHT22;61651;45.508;12.232;2024-02-04T06:28:26;6.90;99.90
14008;DHT22;61651;45.508;12.232;2024-02-04T06:31:29;6.90;99.90
14008;DHT22;61651;45.508;12.232;2024-02-04T06:34:30;6.90;99.90
14008;DHT22;61651;45.508;12.232;2024-02-04T06:37:32;6.80;99.90
14008;DHT22;61651;45.508;12.232;2024-02-04T06:40:34;6.70;99.90
14008;DHT22;61651;45.508;12.232;2024-02-04T06:43:38;6.70;99.90
14008;DHT22;61651;45.508;12.232;2024-02-04T06:46:41;6.70;99.90
14008;DHT22;61651;45.508;12.232;2024-02-04T06:49:44;6.60;99.90
14008;DHT22;61651;45.508;12.232;2024-02-04T06:52:46;6.70;99.90
14008;DHT22;61651;45.508;12.232;2024-02-04T06:55:48;6.70;99.90
14008;DHT22;61651;45.508;12.232;2024-02-04T06:58:52;6.80;99.90
14008;DHT22;61651;45.508;12.232;2024-02-04T07:01:54;6.80;99.90
14008;DHT22;61651;45.508;12.232;2024-02-04T07:04:56;6.80;99.90
14008;DHT22;61651;45.508;12.232;2024-02-04T07:07:58;6.80;99.90
14008;DHT22;61651;45.508;12.232;2024-02-04T07:11:00;6.90;99.90
14008;DHT22;61651;45.508;12.232;2024-02-04T07:14:03;6.70;99.90
14008;DHT22;61651;45.508;12.232;2024-02-04T07:17:06;6.60;99.90
14008;DHT22;61651;45.508;12.232;2024-02-04T07:20:09;6.60;99.90
14008;DHT22;61651;45.508;12.232;2024-02-04T07:23:11;6.50;99.90
14008;DHT22;61651;45.508;12.232;2024-02-04T07:26:13;6.70;99.90
14008;DHT22;61651;45.508;12.232;2024-02-04T07:29:16;6.60;99.90
14008;DHT22;61651;45.508;12.232;2024-02-04T07:32:18;6.50;99.90
14008;DHT22;61651;45.508;12.232;2024-02-04T07:35:20;6.20;99.90
14008;DHT22;61651;45.508;12.232;2024-02-04T07:38:22;6.20;99.90
14008;DHT22;61651;45.508;12.232;2024-02-04T07:41:24;6.50;99.90
14008;DHT22;61651;45.508;12.232;2024-02-04T07:44:28;6.80;99.90
14008;DHT22;61651;45.508;12.232;2024-02-04T07:47:30;7.00;99.90
14008;DHT22;61651;45.508;12.232;2024-02-04T07:50:32;7.20;99.90
14008;DHT22;61651;45.508;12.232;2024-02-04T07:53:34;7.10;99.90
14008;DHT22;61651;45.508;12.232;2024-02-04T07:56:37;6.50;99.90
14008;DHT22;61651;45.508;12.232;2024-02-04T07:59:40;6.60;99.90
14008;DHT22;61651;45.508;12.232;2024-02-04T08:02:44;6.80;99.90
14008;DHT22;61651;45.508;12.232;2024-02-04T08:05:46;7.10;99.90
14008;DHT22;61651;45.508;12.232;2024-02-04T08:08:48;7.40;99.90
14008;DHT22;61651;45.508;12.232;2024-02-04T08:11:50;7.70;99.90
14008;DHT22;61651;45.508;12.232;2024-02-04T08:14:53;7.90;99.90
14008;DHT22;61651;45.508;12.232;2024-02-04T08:17:55;7.90;99.90
14008;DHT22;61651;45.508;12.232;2024-02-04T08:20:57;7.60;99.90
14008;DHT22;61651;45.508;12.232;2024-02-04T08:23:59;7.70;99.90
14008;DHT22;61651;45.508;12.232;2024-02-04T08:27:01;7.80;99.90
14008;DHT22;61651;45.508;12.232;2024-02-04T08:30:07;7.70;99.90
14008;DHT22;61651;45.508;12.232;2024-02-04T08:33:10;7.60;99.90
14008;DHT22;61651;45.508;12.232;2024-02-04T08:36:12;7.50;99.90
14008;DHT22;61651;45.508;12.232;2024-02-04T08:39:14;7.40;99.90
14008;DHT22;61651;45.508;12.232;2024-02-04T08:42:16;7.40;99.90
14008;DHT22;61651;45.508;12.232;2024-02-04T08:45:20;7.70;99.90
14008;DHT22;61651;45.508;12.232;2024-02-04T08:48:22;7.60;99.90
14008;DHT22;61651;45.508;12.232;2024-02-04T08:51:24;7.80;99.90
14008;DHT22;61651;45.508;12.232;2024-02-04T08:54:26;8.10;99.90
14008;DHT22;61651;45.508;12.232;2024-02-04T08:57:28;8.10;99.90
14008;DHT22;61651;45.508;12.232;2024-02-04T09:00:31;8.20;99.90
14008;DHT22;61651;45.508;12.232;2024-02-04T09:03:33;7.80;99.90
14008;DHT22;61651;45.508;12.232;2024-02-04T09:06:35;7.80;99.90
14008;DHT22;61651;45.508;12.232;2024-02-04T09:09:37;8.10;99.90
14008;DHT22;61651;45.508;12.232;2024-02-04T09:12:40;8.30;99.90
14008;DHT22;61651;45.508;12.232;2024-02-04T09:15:43;8.50;99.90
14008;DHT22;61651;45.508;12.232;2024-02-04T09:18:45;8.60;99.90
14008;DHT22;61651;45.508;12.232;2024-02-04T09:21:48;8.80;99.90
14008;DHT22;61651;45.508;12.232;2024-02-04T09:24:50;8.80;99.90
14008;DHT22;61651;45.508;12.232;2024-02-04T09:27:52;9.10;99.90
14008;DHT22;61651;45.508;12.232;2024-02-04T09:30:55;9.20;99.90
14008;DHT22;61651;45.508;12.232;2024-02-04T09:33:57;9.40;99.90
14008;DHT22;61651;45.508;12.232;2024-02-04T09:36:59;9.50;99.90
14008;DHT22;61651;45.508;12.232;2024-02-04T09:40:01;9.60;99.90
14008;DHT22;61651;45.508;12.232;2024-02-04T09:43:05;9.80;99.90
14008;DHT22;61651;45.508;12.232;2024-02-04T09:46:09;9.90;99.90
14008;DHT22;61651;45.508;12.232;2024-02-04T09:49:13;10.00;99.90
14008;DHT22;61651;45.508;12.232;2024-02-04T09:52:18;10.00;99.90
14008;DHT22;61651;45.508;12.232;2024-02-04T09:55:21;9.80;99.90
14008;DHT22;61651;45.508;12.232;2024-02-04T09:58:24;9.70;99.90
14008;DHT22;61651;45.508;12.232;2024-02-04T10:01:28;9.60;99.90
14008;DHT22;61651;45.508;12.232;2024-02-04T10:04:30;9.80;99.90
14008;DHT22;61651;45.508;12.232;2024-02-04T10:07:32;10.10;99.90
14008;DHT22;61651;45.508;12.232;2024-02-04T10:10:34;10.20;99.90
14008;DHT22;61651;45.508;12.232;2024-02-04T10:13:43;10.40;99.90
14008;DHT22;61651;45.508;12.232;2024-02-04T10:16:47;10.50;99.90
14008;DHT22;61651;45.508;12.232;2024-02-04T10:19:49;10.70;99.90
14008;DHT22;61651;45.508;12.232;2024-02-04T10:22:51;10.90;99.90
14008;DHT22;61651;45.508;12.232;2024-02-04T10:25:58;11.00;99.90
14008;DHT22;61651;45.508;12.232;2024-02-04T10:29:00;11.10;99.90
14008;DHT22;61651;45.508;12.232;2024-02-04T10:32:04;11.30;99.90
14008;DHT22;61651;45.508;12.232;2024-02-04T10:35:07;11.30;99.90
14008;DHT22;61651;45.508;12.232;2024-02-04T10:38:10;11.50;99.90
14008;DHT22;61651;45.508;12.232;2024-02-04T10:41:14;11.60;99.90
14008;DHT22;61651;45.508;12.232;2024-02-04T10:44:18;11.70;99.90
14008;DHT22;61651;45.508;12.232;2024-02-04T10:47:29;11.80;99.90
14008;DHT22;61651;45.508;12.232;2024-02-04T10:50:35;12.00;99.90
14008;DHT22;61651;45.508;12.232;2024-02-04T10:53:37;12.00;99.90
14008;DHT22;61651;45.508;12.232;2024-02-04T10:56:42;11.90;99.90
14008;DHT22;61651;45.508;12.232;2024-02-04T10:59:45;12.00;99.90
14008;DHT22;61651;45.508;12.232;2024-02-04T11:02:52;12.20;99.90
14008;DHT22;61651;45.508;12.232;2024-02-04T11:05:55;12.30;99.90
14008;DHT22;61651;45.508;12.232;2024-02-04T11:08:58;12.40;99.90
14008;DHT22;61651;45.508;12.232;2024-02-04T11:12:04;12.40;99.90
14008;DHT22;61651;45.508;12.232;2024-02-04T11:15:10;12.60;99.90
14008;DHT22;61651;45.508;12.232;2024-02-04T11:22:26;12.40;99.90
14008;DHT22;61651;45.508;12.232;2024-02-04T11:25:45;12.50;99.90
14008;DHT22;61651;45.508;12.232;2024-02-04T11:28:49;12.70;99.90
14008;DHT22;61651;45.508;12.232;2024-02-04T11:31:51;12.70;99.90
14008;DHT22;61651;45.508;12.232;2024-02-04T11:34:54;12.80;99.90
14008;DHT22;61651;45.508;12.232;2024-02-04T11:38:02;12.80;99.90
14008;DHT22;61651;45.508;12.232;2024-02-04T11:41:05;12.50;99.90
14008;DHT22;61651;45.508;12.232;2024-02-04T11:44:07;12.60;99.90
14008;DHT22;61651;45.508;12.232;2024-02-04T11:47:10;12.70;99.90
14008;DHT22;61651;45.508;12.232;2024-02-04T11:50:12;12.60;99.90
14008;DHT22;61651;45.508;12.232;2024-02-04T11:53:16;12.70;99.90
14008;DHT22;61651;45.508;12.232;2024-02-04T11:56:18;12.70;99.90
14008;DHT22;61651;45.508;12.232;2024-02-04T11:59:20;12.50;99.90
14008;DHT22;61651;45.508;12.232;2024-02-04T12:02:24;12.60;99.90
14008;DHT22;61651;45.508;12.232;2024-02-04T12:05:26;12.60;99.90
14008;DHT22;61651;45.508;12.232;2024-02-04T12:08:31;12.80;99.40
14008;DHT22;61651;45.508;12.232;2024-02-04T12:11:34;12.70;98.80
14008;DHT22;61651;45.508;12.232;2024-02-04T12:14:37;12.90;99.40
14008;DHT22;61651;45.508;12.232;2024-02-04T12:17:40;13.00;99.60
14008;DHT22;61651;45.508;12.232;2024-02-04T12:20:42;13.00;98.90
14008;DHT22;61651;45.508;12.232;2024-02-04T12:23:46;13.10;99.00
14008;DHT22;61651;45.508;12.232;2024-02-04T12:26:48;13.10;98.80
14008;DHT22;61651;45.508;12.232;2024-02-04T12:29:51;13.30;98.90
14008;DHT22;61651;45.508;12.232;2024-02-04T12:32:57;13.40;99.10
14008;DHT22;61651;45.508;12.232;2024-02-04T12:35:59;13.50;98.70
14008;DHT22;61651;45.508;12.232;2024-02-04T12:39:03;13.70;98.50
14008;DHT22;61651;45.508;12.232;2024-02-04T12:42:10;13.80;97.90
14008;DHT22;61651;45.508;12.232;2024-02-04T12:45:14;13.70;98.20
14008;DHT22;61651;45.508;12.232;2024-02-04T12:48:16;13.70;98.40
14008;DHT22;61651;45.508;12.232;2024-02-04T12:51:25;13.70;98.30
14008;DHT22;61651;45.508;12.232;2024-02-04T12:54:28;13.80;97.80
14008;DHT22;61651;45.508;12.232;2024-02-04T12:57:32;13.90;98.10
14008;DHT22;61651;45.508;12.232;2024-02-04T13:00:34;13.90;97.80
14008;DHT22;61651;45.508;12.232;2024-02-04T13:03:37;13.90;97.80
14008;DHT22;61651;45.508;12.232;2024-02-04T13:06:39;13.80;97.50
14008;DHT22;61651;45.508;12.232;2024-02-04T13:09:43;13.80;97.80
14008;DHT22;61651;45.508;12.232;2024-02-04T13:12:46;13.80;98.20
14008;DHT22;61651;45.508;12.232;2024-02-04T13:15:48;13.90;98.40
14008;DHT22;61651;45.508;12.232;2024-02-04T13:18:53;14.00;98.50
14008;DHT22;61651;45.508;12.232;2024-02-04T13:21:55;14.10;98.90
14008;DHT22;61651;45.508;12.232;2024-02-04T13:24:58;14.20;99.10
14008;DHT22;61651;45.508;12.232;2024-02-04T13:28:01;14.30;99.20
14008;DHT22;61651;45.508;12.232;2024-02-04T13:31:03;14.40;99.30
14008;DHT22;61651;45.508;12.232;2024-02-04T13:34:05;14.50;99.30
14008;DHT22;61651;45.508;12.232;2024-02-04T13:37:07;14.60;99.20
14008;DHT22;61651;45.508;12.232;2024-02-04T13:40:11;14.70;99.10
14008;DHT22;61651;45.508;12.232;2024-02-04T13:43:13;14.70;99.10
14008;DHT22;61651;45.508;12.232;2024-02-04T13:46:15;14.80;99.10
14008;DHT22;61651;45.508;12.232;2024-02-04T13:49:17;14.90;99.10
14008;DHT22;61651;45.508;12.232;2024-02-04T13:52:19;15.00;99.20
14008;DHT22;61651;45.508;12.232;2024-02-04T13:55:23;15.30;99.30
14008;DHT22;61651;45.508;12.232;2024-02-04T13:58:25;15.50;98.80
14008;DHT22;61651;45.508;12.232;2024-02-04T14:01:27;15.60;98.50
14008;DHT22;61651;45.508;12.232;2024-02-04T14:04:30;15.70;98.20
14008;DHT22;61651;45.508;12.232;2024-02-04T14:07:32;15.80;97.70
14008;DHT22;61651;45.508;12.232;2024-02-04T14:10:35;15.80;97.60
14008;DHT22;61651;45.508;12.232;2024-02-04T14:13:38;15.80;97.70
14008;DHT22;61651;45.508;12.232;2024-02-04T14:16:41;15.90;97.70
14008;DHT22;61651;45.508;12.232;2024-02-04T14:19:43;15.90;97.60
14008;DHT22;61651;45.508;12.232;2024-02-04T14:22:49;15.90;97.60
14008;DHT22;61651;45.508;12.232;2024-02-04T14:25:52;15.90;97.20
14008;DHT22;61651;45.508;12.232;2024-02-04T14:28:55;15.80;97.30
14008;DHT22;61651;45.508;12.232;2024-02-04T14:31:57;15.70;97.20
14008;DHT22;61651;45.508;12.232;2024-02-04T14:34:59;15.70;97.30
14008;DHT22;61651;45.508;12.232;2024-02-04T14:38:01;15.80;97.00
14008;DHT22;61651;45.508;12.232;2024-02-04T14:41:05;15.80;97.10
14008;DHT22;61651;45.508;12.232;2024-02-04T14:44:07;15.90;97.10
14008;DHT22;61651;45.508;12.232;2024-02-04T14:47:09;15.90;97.20
14008;DHT22;61651;45.508;12.232;2024-02-04T14:50:11;16.00;97.00
14008;DHT22;61651;45.508;12.232;2024-02-04T14:53:14;16.00;97.00
14008;DHT22;61651;45.508;12.232;2024-02-04T14:56:17;16.00;97.00
14008;DHT22;61651;45.508;12.232;2024-02-04T14:59:19;16.00;97.20
14008;DHT22;61651;45.508;12.232;2024-02-04T15:02:21;16.10;97.00
14008;DHT22;61651;45.508;12.232;2024-02-04T15:05:23;16.10;97.10
14008;DHT22;61651;45.508;12.232;2024-02-04T15:08:25;16.00;97.10
14008;DHT22;61651;45.508;12.232;2024-02-04T15:11:29;16.00;97.10
14008;DHT22;61651;45.508;12.232;2024-02-04T15:14:32;15.90;97.00
14008;DHT22;61651;45.508;12.232;2024-02-04T15:17:34;15.70;97.20
14008;DHT22;61651;45.508;12.232;2024-02-04T15:20:37;15.60;97.30
14008;DHT22;61651;45.508;12.232;2024-02-04T15:23:39;15.50;97.30
14008;DHT22;61651;45.508;12.232;2024-02-04T15:26:43;15.40;97.30
14008;DHT22;61651;45.508;12.232;2024-02-04T15:29:48;15.20;97.60
14008;DHT22;61651;45.508;12.232;2024-02-04T15:32:50;15.10;97.50
14008;DHT22;61651;45.508;12.232;2024-02-04T15:35:55;15.00;97.70
14008;DHT22;61651;45.508;12.232;2024-02-04T15:38:57;14.90;97.80
14008;DHT22;61651;45.508;12.232;2024-02-04T15:42:00;14.70;97.80
14008;DHT22;61651;45.508;12.232;2024-02-04T15:45:02;14.60;98.00
14008;DHT22;61651;45.508;12.232;2024-02-04T15:48:05;14.50;98.20
14008;DHT22;61651;45.508;12.232;2024-02-04T15:51:09;14.40;98.20
14008;DHT22;61651;45.508;12.232;2024-02-04T15:54:11;14.20;98.30
14008;DHT22;61651;45.508;12.232;2024-02-04T15:57:17;14.10;98.50
14008;DHT22;61651;45.508;12.232;2024-02-04T16:00:22;14.00;98.70
14008;DHT22;61651;45.508;12.232;2024-02-04T16:03:26;13.90;99.20
14008;DHT22;61651;45.508;12.232;2024-02-04T16:06:29;13.80;98.90
14008;DHT22;61651;45.508;12.232;2024-02-04T16:09:31;13.50;99.20
14008;DHT22;61651;45.508;12.232;2024-02-04T16:12:37;13.50;99.40
14008;DHT22;61651;45.508;12.232;2024-02-04T16:15:42;13.30;99.50
14008;DHT22;61651;45.508;12.232;2024-02-04T16:18:48;13.30;99.40
14008;DHT22;61651;45.508;12.232;2024-02-04T16:21:50;13.30;99.40
14008;DHT22;61651;45.508;12.232;2024-02-04T16:24:53;13.30;99.70
14008;DHT22;61651;45.508;12.232;2024-02-04T16:27:56;13.30;99.80
14008;DHT22;61651;45.508;12.232;2024-02-04T16:30:58;13.20;99.80
14008;DHT22;61651;45.508;12.232;2024-02-04T16:34:00;13.10;99.90
14008;DHT22;61651;45.508;12.232;2024-02-04T16:37:03;13.00;99.90
14008;DHT22;61651;45.508;12.232;2024-02-04T16:40:06;13.00;99.90
14008;DHT22;61651;45.508;12.232;2024-02-04T16:43:11;13.00;99.90
14008;DHT22;61651;45.508;12.232;2024-02-04T16:46:13;13.00;99.90
14008;DHT22;61651;45.508;12.232;2024-02-04T16:49:16;12.90;99.90
14008;DHT22;61651;45.508;12.232;2024-02-04T16:52:18;12.80;99.90
14008;DHT22;61651;45.508;12.232;2024-02-04T16:55:20;12.80;99.90
14008;DHT22;61651;45.508;12.232;2024-02-04T16:58:23;12.70;99.90
14008;DHT22;61651;45.508;12.232;2024-02-04T17:01:25;12.60;99.90
14008;DHT22;61651;45.508;12.232;2024-02-04T17:04:28;12.60;99.90
14008;DHT22;61651;45.508;12.232;2024-02-04T17:07:30;12.50;99.90
14008;DHT22;61651;45.508;12.232;2024-02-04T17:10:33;12.40;99.90
14008;DHT22;61651;45.508;12.232;2024-02-04T17:13:37;12.30;99.90
14008;DHT22;61651;45.508;12.232;2024-02-04T17:16:44;12.30;99.90
14008;DHT22;61651;45.508;12.232;2024-02-04T17:19:54;12.20;99.90
14008;DHT22;61651;45.508;12.232;2024-02-04T17:23:08;12.20;99.90
14008;DHT22;61651;45.508;12.232;2024-02-04T17:26:12;12.10;99.90
14008;DHT22;61651;45.508;12.232;2024-02-04T17:29:17;11.90;99.90
14008;DHT22;61651;45.508;12.232;2024-02-04T17:32:19;11.90;99.90
14008;DHT22;61651;45.508;12.232;2024-02-04T17:35:26;11.80;99.90
14008;DHT22;61651;45.508;12.232;2024-02-04T17:38:29;11.80;99.90
14008;DHT22;61651;45.508;12.232;2024-02-04T17:41:31;11.70;99.90
14008;DHT22;61651;45.508;12.232;2024-02-04T17:44:34;11.70;99.90
14008;DHT22;61651;45.508;12.232;2024-02-04T17:47:36;11.60;99.90
14008;DHT22;61651;45.508;12.232;2024-02-04T17:50:39;11.60;99.90
14008;DHT22;61651;45.508;12.232;2024-02-04T17:53:41;11.50;99.90
14008;DHT22;61651;45.508;12.232;2024-02-04T17:56:44;11.50;99.90
14008;DHT22;61651;45.508;12.232;2024-02-04T17:59:47;11.40;99.90
14008;DHT22;61651;45.508;12.232;2024-02-04T18:02:49;11.30;99.90
14008;DHT22;61651;45.508;12.232;2024-02-04T18:05:51;11.20;99.90
14008;DHT22;61651;45.508;12.232;2024-02-04T18:08:55;11.10;99.90
14008;DHT22;61651;45.508;12.232;2024-02-04T18:11:57;11.10;99.90
14008;DHT22;61651;45.508;12.232;2024-02-04T18:15:00;11.00;99.90
14008;DHT22;61651;45.508;12.232;2024-02-04T18:18:02;10.90;99.90
14008;DHT22;61651;45.508;12.232;2024-02-04T18:21:05;10.90;99.90
14008;DHT22;61651;45.508;12.232;2024-02-04T18:24:09;10.90;99.90
14008;DHT22;61651;45.508;12.232;2024-02-04T18:27:12;10.90;99.90
14008;DHT22;61651;45.508;12.232;2024-02-04T18:30:16;10.90;99.90
14008;DHT22;61651;45.508;12.232;2024-02-04T18:33:18;10.80;99.90
14008;DHT22;61651;45.508;12.232;2024-02-04T18:36:21;10.70;99.90
14008;DHT22;61651;45.508;12.232;2024-02-04T18:39:24;10.70;99.90
14008;DHT22;61651;45.508;12.232;2024-02-04T18:42:28;10.70;99.90
14008;DHT22;61651;45.508;12.232;2024-02-04T18:45:33;10.60;99.90
14008;DHT22;61651;45.508;12.232;2024-02-04T18:48:35;10.60;99.90
14008;DHT22;61651;45.508;12.232;2024-02-04T18:51:41;10.60;99.90
14008;DHT22;61651;45.508;12.232;2024-02-04T18:54:44;10.50;99.90
14008;DHT22;61651;45.508;12.232;2024-02-04T18:57:46;10.50;99.90
14008;DHT22;61651;45.508;12.232;2024-02-04T19:00:51;10.50;99.90
14008;DHT22;61651;45.508;12.232;2024-02-04T19:03:53;10.50;99.90
14008;DHT22;61651;45.508;12.232;2024-02-04T19:06:55;10.50;99.90
14008;DHT22;61651;45.508;12.232;2024-02-04T19:10:00;10.40;99.90